Time;durP1;ratioP1;P1;durP2;ratioP2;P2;SDS_P1;SDS_P2;PMS_P1;PMS_P2;Temp;Humidity;BMP_temperature;BMP_pressure;BME280_temperature;BME280_humidity;BME280_pressure;Samples;Min_cycle;Max_cycle;Signal;HPM_P1;HPM_P2
2022/06/17 00:00:46;;;;;;;30.30;18.30;;;13.50;99.90;;;;;;5019084;28;20048;-68
2022/06/17 00:03:12;;;;;;;34.72;20.23;;;13.50;99.90;;;;;;5015100;28;20122;-68
2022/06/17 00:05:38;;;;;;;28.88;19.00;;;13.50;99.90;;;;;;5024236;28;20061;-68
2022/06/17 00:08:05;;;;;;;32.67;20.15;;;13.60;99.90;;;;;;5032770;28;20044;-68
2022/06/17 00:10:31;;;;;;;36.00;20.50;;;13.60;99.90;;;;;;5017062;28;20044;-68
2022/06/17 00:12:56;;;;;;;29.40;19.17;;;13.60;99.90;;;;;;5024851;28;20399;-68
2022/06/17 00:15:22;;;;;;;23.95;16.42;;;13.60;99.90;;;;;;5020615;28;20496;-68
2022/06/17 00:17:54;;;;;;;16.25;12.63;;;13.60;99.90;;;;;;5011835;28;20111;-68
2022/06/17 00:20:21;;;;;;;;;;;13.50;99.90;;;;;;5021736;28;20059;-68
2022/06/17 00:22:47;;;;;;;19.15;13.88;;;13.40;99.90;;;;;;5050345;28;19925;-68
2022/06/17 00:25:29;;;;;;;20.35;13.73;;;13.20;99.90;;;;;;5037394;28;20360;-68
2022/06/17 00:27:55;;;;;;;22.50;16.17;;;13.10;99.90;;;;;;5028753;28;20482;-68
2022/06/17 00:30:25;;;;;;;25.60;17.23;;;13.10;99.90;;;;;;5006625;28;20041;-67
2022/06/17 00:32:56;;;;;;;23.92;16.90;;;13.00;99.90;;;;;;5017694;28;20052;-68
2022/06/17 00:35:24;;;;;;;28.15;18.45;;;13.10;99.90;;;;;;5024675;28;20040;-68
2022/06/17 00:37:50;;;;;;;26.80;18.65;;;13.00;99.90;;;;;;5015623;28;20494;-67
2022/06/17 00:40:22;;;;;;;31.95;21.13;;;13.00;99.90;;;;;;5026127;28;20125;-68
2022/06/17 00:42:48;;;;;;;29.40;20.70;;;13.10;99.90;;;;;;5013011;28;20124;-68
2022/06/17 00:45:27;;;;;;;36.92;20.70;;;13.10;99.90;;;;;;5028834;28;20037;-68
2022/06/17 00:48:06;;;;;;;36.00;22.02;;;13.20;99.90;;;;;;5024284;28;20029;-68
2022/06/17 00:50:46;;;;;;;36.38;21.48;;;13.20;99.90;;;;;;5032691;28;20100;-67
2022/06/17 00:53:25;;;;;;;33.15;21.05;;;13.30;99.90;;;;;;5028432;28;20041;-67
2022/06/17 00:55:55;;;;;;;32.50;20.63;;;13.20;99.90;;;;;;5023734;28;20131;-67
2022/06/17 00:58:25;;;;;;;34.67;19.98;;;13.20;99.90;;;;;;5029253;28;20044;-67
2022/06/17 01:00:57;;;;;;;33.53;20.55;;;13.20;99.90;;;;;;5025635;28;20033;-68
2022/06/17 01:03:33;;;;;;;31.33;19.48;;;13.20;99.90;;;;;;5036620;28;20100;-68
2022/06/17 01:06:09;;;;;;;33.42;19.35;;;13.20;99.90;;;;;;5020147;28;20041;-68
2022/06/17 01:11:27;;;;;;;30.27;19.42;;;13.20;99.90;;;;;;5024532;28;20450;-67
2022/06/17 01:13:54;;;;;;;31.15;19.25;;;13.20;99.90;;;;;;5025783;28;20033;-68
2022/06/17 01:16:25;;;;;;;31.02;18.40;;;13.20;99.90;;;;;;5030048;28;20168;-68
2022/06/17 01:18:53;;;;;;;29.00;18.45;;;13.20;99.90;;;;;;5027947;28;20423;-68
2022/06/17 01:21:38;;;;;;;32.15;18.70;;;13.20;99.90;;;;;;5029857;28;20535;-67
2022/06/17 01:24:07;;;;;;;31.45;18.73;;;13.20;99.90;;;;;;5021339;28;20396;-67
2022/06/17 01:26:33;;;;;;;29.13;18.02;;;13.20;99.90;;;;;;5027429;28;20080;-68
2022/06/17 01:28:59;;;;;;;35.80;18.88;;;13.10;99.90;;;;;;5054268;28;20053;-68
2022/06/17 01:31:24;;;;;;;29.70;17.88;;;13.20;99.90;;;;;;5027731;28;20037;-67
2022/06/17 01:33:50;;;;;;;27.73;17.17;;;13.10;99.90;;;;;;5017021;28;20059;-68
2022/06/17 01:36:24;;;;;;;31.08;16.90;;;13.10;99.90;;;;;;5022246;28;20044;-68
2022/06/17 01:38:52;;;;;;;29.13;16.77;;;13.10;99.90;;;;;;5032189;28;20091;-68
2022/06/17 01:41:23;;;;;;;28.73;16.20;;;13.10;99.90;;;;;;5030234;28;20124;-68
2022/06/17 01:43:55;;;;;;;29.05;16.50;;;13.10;99.90;;;;;;5021788;28;20041;-67
2022/06/17 01:46:33;;;;;;;26.08;17.08;;;13.20;99.90;;;;;;5009170;28;20052;-68
2022/06/17 01:49:10;;;;;;;26.50;16.50;;;13.20;99.90;;;;;;5026197;28;20057;-68
2022/06/17 01:51:41;;;;;;;26.25;16.90;;;13.20;99.90;;;;;;5027320;28;20033;-68
2022/06/17 01:54:12;;;;;;;29.17;16.67;;;13.20;99.90;;;;;;5011819;28;20113;-68
2022/06/17 01:56:41;;;;;;;26.13;16.33;;;13.20;99.90;;;;;;5014575;28;20063;-68
2022/06/17 01:59:12;;;;;;;26.83;16.50;;;13.20;99.90;;;;;;5036045;28;20144;-68
2022/06/17 02:01:42;;;;;;;31.13;18.23;;;13.20;99.90;;;;;;5023512;28;20123;-68
2022/06/17 02:04:16;;;;;;;28.98;18.15;;;13.20;99.90;;;;;;5024395;28;20041;-68
2022/06/17 02:06:54;;;;;;;31.05;18.85;;;13.10;99.90;;;;;;5027022;28;20106;-68
2022/06/17 02:09:20;;;;;;;26.65;17.42;;;13.10;99.90;;;;;;5026352;28;20431;-68
2022/06/17 02:11:47;;;;;;;24.98;16.20;;;13.00;99.90;;;;;;5021690;28;20037;-67
2022/06/17 02:14:13;;;;;;;25.30;16.15;;;12.80;99.90;;;;;;5026774;28;20484;-68
2022/06/17 02:16:48;;;;;;;22.40;16.02;;;12.70;99.90;;;;;;5025991;28;20186;-68
2022/06/17 02:19:14;;;;;;;24.77;16.70;;;12.70;99.90;;;;;;5007866;28;20431;-68
2022/06/17 02:21:45;;;;;;;26.80;17.38;;;12.60;99.90;;;;;;5025028;28;20040;-68
2022/06/17 02:24:12;;;;;;;28.45;18.17;;;12.50;99.90;;;;;;5023310;28;20048;-68
2022/06/17 02:26:39;;;;;;;28.63;16.73;;;12.60;99.90;;;;;;5013195;28;20395;-68
2022/06/17 02:29:08;;;;;;;27.10;16.70;;;12.60;99.90;;;;;;5034047;28;20029;-68
2022/06/17 02:31:35;;;;;;;30.05;18.98;;;12.60;99.90;;;;;;5023542;28;20055;-68
2022/06/17 02:34:03;;;;;;;35.78;19.42;;;12.70;99.90;;;;;;5024196;28;20044;-68
2022/06/17 02:36:47;;;;;;;36.70;20.95;;;12.70;99.90;;;;;;5028039;28;20046;-68
2022/06/17 02:39:13;;;;;;;36.17;21.20;;;12.70;99.90;;;;;;5031435;28;20053;-67
2022/06/17 02:41:40;;;;;;;41.03;22.40;;;12.80;99.90;;;;;;5025514;28;20036;-68
2022/06/17 02:44:20;;;;;;;41.42;22.42;;;12.80;99.90;;;;;;5020393;28;20122;-67
2022/06/17 02:46:47;;;;;;;37.90;22.75;;;12.90;99.90;;;;;;5052760;28;20044;-68
2022/06/17 02:49:21;;;;;;;36.42;22.50;;;12.90;99.90;;;;;;5013398;28;20044;-68
2022/06/17 02:51:47;;;;;;;36.45;21.17;;;12.90;99.90;;;;;;5018576;28;20067;-69
2022/06/17 02:54:26;;;;;;;36.00;21.65;;;12.90;99.90;;;;;;5020963;28;20552;-68
2022/06/17 02:56:54;;;;;;;36.35;22.40;;;13.00;99.90;;;;;;5014958;28;20041;-68
2022/06/17 02:59:35;;;;;;;34.72;22.00;;;13.00;99.90;;;;;;5020103;28;20045;-68
2022/06/17 03:02:11;;;;;;;37.08;22.10;;;13.10;99.90;;;;;;5012436;28;20041;-68
2022/06/17 03:04:37;;;;;;;39.08;23.35;;;13.10;99.90;;;;;;5018949;28;20045;-68
2022/06/17 03:07:17;;;;;;;40.85;23.13;;;13.20;99.90;;;;;;5049417;28;20091;-68
2022/06/17 03:09:43;;;;;;;40.78;23.15;;;13.20;99.90;;;;;;5015417;28;20036;-68
2022/06/17 03:12:11;;;;;;;38.35;23.48;;;13.30;99.90;;;;;;5027727;28;20488;-68
2022/06/17 03:14:50;;;;;;;39.63;23.73;;;13.30;99.90;;;;;;5008018;28;20036;-68
2022/06/17 03:17:19;;;;;;;35.45;22.98;;;13.30;99.90;;;;;;5056204;28;20040;-68
2022/06/17 03:19:46;;;;;;;37.17;22.52;;;13.30;99.90;;;;;;5021525;28;20029;-68
2022/06/17 03:22:13;;;;;;;37.47;22.52;;;13.40;99.90;;;;;;5027135;28;20392;-68
2022/06/17 03:24:48;;;;;;;40.70;24.25;;;13.40;99.90;;;;;;5024557;28;20049;-68
2022/06/17 03:27:19;;;;;;;37.05;23.55;;;13.50;99.90;;;;;;5021008;28;20459;-68
2022/06/17 03:29:46;;;;;;;36.40;22.88;;;13.50;99.90;;;;;;5023155;28;20041;-68
2022/06/17 03:32:20;;;;;;;40.40;22.17;;;13.50;99.90;;;;;;5029529;28;20570;-68
2022/06/17 03:34:54;;;;;;;38.65;24.17;;;13.50;99.90;;;;;;5000945;28;20032;-68
2022/06/17 03:37:39;;;;;;;39.70;25.23;;;13.50;99.90;;;;;;5000015;28;20055;-68
2022/06/17 03:40:33;;;;;;;40.90;25.08;;;13.60;99.90;;;;;;5022183;28;20365;-68
2022/06/17 03:43:11;;;;;;;40.40;25.52;;;13.60;99.90;;;;;;5014850;28;20057;-68
2022/06/17 03:45:46;;;;;;;41.22;26.08;;;13.60;99.90;;;;;;5022930;28;20048;-68
2022/06/17 03:48:33;;;;;;;43.63;25.45;;;13.70;99.90;;;;;;5020926;28;20189;-68
2022/06/17 03:50:59;;;;;;;41.90;24.42;;;13.70;99.90;;;;;;5030422;28;20052;-68
2022/06/17 03:53:29;;;;;;;51.38;26.77;;;13.70;99.90;;;;;;5024049;28;20044;-68
2022/06/17 03:56:05;;;;;;;47.65;26.90;;;13.70;99.90;;;;;;5016929;28;20052;-68
2022/06/17 03:58:32;;;;;;;40.15;25.80;;;13.80;99.90;;;;;;5020180;28;20407;-67
2022/06/17 04:00:59;;;;;;;41.53;24.33;;;13.80;99.90;;;;;;5020125;28;20541;-68
2022/06/17 04:03:29;;;;;;;41.28;25.38;;;13.80;99.90;;;;;;5021034;28;20522;-68
2022/06/17 04:06:04;;;;;;;41.17;26.15;;;13.90;99.90;;;;;;5019750;28;20033;-68
2022/06/17 04:08:31;;;;;;;43.50;27.25;;;14.00;99.90;;;;;;5016440;28;20068;-68
2022/06/17 04:10:58;;;;;;;44.70;27.35;;;14.10;99.90;;;;;;5023333;28;20033;-69
2022/06/17 04:13:28;;;;;;;45.33;27.67;;;14.00;99.90;;;;;;5025688;28;20045;-68
2022/06/17 04:16:05;;;;;;;43.50;27.08;;;14.10;99.90;;;;;;5024455;28;20049;-68
2022/06/17 04:18:35;;;;;;;41.13;26.20;;;14.20;99.90;;;;;;5020643;28;20036;-68
2022/06/17 04:21:04;;;;;;;44.88;27.38;;;14.30;99.90;;;;;;5007916;28;20084;-68
2022/06/17 04:23:33;;;;;;;44.42;26.55;;;14.30;99.90;;;;;;5029329;28;20042;-68
2022/06/17 04:26:11;;;;;;;44.53;26.42;;;14.30;99.90;;;;;;5021026;28;20071;-68
2022/06/17 04:28:48;;;;;;;42.45;27.08;;;14.40;99.90;;;;;;5021249;28;20028;-68
2022/06/17 04:31:18;;;;;;;42.25;27.20;;;14.40;99.90;;;;;;5014804;28;20037;-68
2022/06/17 04:33:55;;;;;;;43.28;27.55;;;14.40;99.90;;;;;;5001648;28;20131;-68
2022/06/17 04:36:23;;;;;;;40.42;26.38;;;14.40;99.90;;;;;;5019832;28;20045;-68
2022/06/17 04:39:14;;;;;;;37.15;23.60;;;14.50;99.90;;;;;;5012378;28;20049;-68
2022/06/17 04:41:41;;;;;;;39.97;25.35;;;14.60;99.90;;;;;;5016245;28;20045;-68
2022/06/17 04:44:12;;;;;;;41.85;27.52;;;14.70;99.90;;;;;;5019793;28;20099;-67
2022/06/17 04:46:46;;;;;;;43.28;27.90;;;14.80;99.90;;;;;;5021757;28;20111;-68
2022/06/17 04:49:19;;;;;;;40.70;25.77;;;14.80;99.90;;;;;;5022915;28;20037;-68
2022/06/17 04:51:45;;;;;;;37.50;25.88;;;14.80;99.90;;;;;;5014964;28;20054;-68
2022/06/17 04:54:12;;;;;;;42.30;26.95;;;14.90;99.90;;;;;;5020776;28;20127;-68
2022/06/17 04:56:42;;;;;;;38.95;25.98;;;14.90;99.90;;;;;;5018940;28;20056;-68
2022/06/17 04:59:16;;;;;;;39.25;26.58;;;15.00;99.90;;;;;;5026202;28;20041;-68
2022/06/17 05:01:43;;;;;;;40.88;26.45;;;15.00;99.90;;;;;;5024680;28;20360;-67
2022/06/17 05:04:09;;;;;;;36.92;23.92;;;15.10;99.90;;;;;;5025302;28;20124;-68
2022/06/17 05:06:35;;;;;;;38.15;23.60;;;15.10;99.90;;;;;;5016896;28;20041;-68
2022/06/17 05:09:10;;;;;;;37.42;25.15;;;15.10;99.90;;;;;;5023003;28;20044;-68
2022/06/17 05:11:41;;;;;;;39.72;24.73;;;15.20;99.90;;;;;;5019973;28;20041;-68
2022/06/17 05:14:33;;;;;;;37.13;25.60;;;15.20;99.90;;;;;;5022797;28;20095;-67
2022/06/17 05:16:59;;;;;;;37.22;25.73;;;15.30;99.90;;;;;;5017503;28;20049;-68
2022/06/17 05:19:25;;;;;;;40.47;25.75;;;15.30;99.90;;;;;;5023804;28;20106;-68
2022/06/17 05:21:50;;;;;;;39.38;25.70;;;15.40;99.90;;;;;;5013940;28;20076;-68
2022/06/17 05:24:16;;;;;;;42.97;26.33;;;15.40;99.90;;;;;;5008639;28;20564;-68
2022/06/17 05:26:41;;;;;;;37.47;25.90;;;15.40;99.90;;;;;;5019737;28;20033;-68
2022/06/17 05:29:09;;;;;;;39.13;24.88;;;15.50;99.90;;;;;;5020978;28;20033;-69
2022/06/17 05:31:35;;;;;;;39.22;25.30;;;15.50;99.90;;;;;;5021970;28;20492;-68
2022/06/17 05:34:02;;;;;;;36.13;24.63;;;15.50;99.90;;;;;;5022601;28;20041;-69
2022/06/17 05:36:28;;;;;;;38.92;24.88;;;15.50;99.90;;;;;;5019438;28;20077;-68
2022/06/17 05:38:53;;;;;;;39.13;24.65;;;15.60;99.90;;;;;;5025066;28;20440;-69
2022/06/17 05:41:23;;;;;;;36.45;23.42;;;15.60;99.90;;;;;;5024533;28;20551;-69
2022/06/17 05:43:49;;;;;;;42.10;25.98;;;15.70;99.90;;;;;;5027669;28;20037;-69
2022/06/17 05:46:16;;;;;;;37.40;25.30;;;15.70;99.90;;;;;;5023968;28;20045;-69
2022/06/17 05:48:41;;;;;;;43.72;25.77;;;15.70;99.90;;;;;;5021343;28;20032;-69
2022/06/17 05:51:07;;;;;;;39.45;25.75;;;15.80;99.90;;;;;;5018374;28;20143;-69
2022/06/17 05:53:33;;;;;;;39.88;25.48;;;15.80;99.90;;;;;;5025443;28;20128;-69
2022/06/17 05:55:58;;;;;;;39.22;25.08;;;15.90;99.90;;;;;;5022461;28;20332;-69
2022/06/17 05:58:24;;;;;;;38.08;24.55;;;15.90;99.90;;;;;;5005837;28;20033;-68
2022/06/17 06:00:49;;;;;;;37.47;23.67;;;16.00;99.90;;;;;;5015708;28;20037;-69
2022/06/17 06:03:33;;;;;;;39.83;24.85;;;16.10;99.90;;;;;;5019585;28;20037;-69
2022/06/17 06:05:59;;;;;;;35.78;23.88;;;16.20;99.90;;;;;;5020759;28;20122;-69
2022/06/17 06:08:24;;;;;;;41.78;25.73;;;16.30;99.90;;;;;;5020534;28;20079;-68
2022/06/17 06:10:51;;;;;;;34.80;23.77;;;16.40;99.90;;;;;;5019497;28;20392;-68
2022/06/17 06:13:19;;;;;;;35.55;23.52;;;16.50;99.90;;;;;;5020813;28;20049;-69
2022/06/17 06:15:47;;;;;;;39.50;23.92;;;16.60;99.90;;;;;;5050417;28;20048;-68
2022/06/17 06:18:19;;;;;;;34.78;24.30;;;16.70;99.90;;;;;;5018040;28;20030;-68
2022/06/17 06:20:44;;;;;;;35.55;24.75;;;16.70;99.90;;;;;;5021875;28;20041;-69
2022/06/17 06:23:10;;;;;;;37.42;24.48;;;16.80;99.90;;;;;;5023347;28;20048;-69
2022/06/17 06:25:36;;;;;;;36.50;24.77;;;16.80;99.90;;;;;;5026375;28;20064;-68
2022/06/17 06:28:28;;;;;;;39.03;24.95;;;16.90;99.90;;;;;;5018149;28;20041;-69
2022/06/17 06:30:58;;;;;;;36.65;25.00;;;16.90;99.90;;;;;;5015322;28;20561;-69
2022/06/17 06:33:24;;;;;;;37.25;24.08;;;17.00;99.90;;;;;;5022892;28;20049;-68
2022/06/17 06:35:49;;;;;;;34.58;24.83;;;17.10;99.90;;;;;;5020105;28;20063;-69
2022/06/17 06:38:16;;;;;;;37.97;24.63;;;17.20;99.90;;;;;;5019155;28;20045;-68
2022/06/17 06:40:41;;;;;;;36.80;24.02;;;17.40;99.90;;;;;;5017086;28;20443;-70
2022/06/17 06:43:17;;;;;;;36.05;24.88;;;17.40;99.90;;;;;;5012602;28;20083;-69
2022/06/17 06:45:45;;;;;;;39.53;24.20;;;17.60;99.90;;;;;;5022143;28;20503;-68
2022/06/17 06:48:13;;;;;;;36.92;24.77;;;17.70;99.90;;;;;;5011968;28;20037;-68
2022/06/17 06:50:39;;;;;;;35.00;23.55;;;17.90;99.90;;;;;;5013117;28;20034;-68
2022/06/17 06:53:05;;;;;;;33.35;23.30;;;18.00;99.90;;;;;;5023032;28;20048;-68
2022/06/17 06:55:34;;;;;;;35.90;23.52;;;18.10;99.90;;;;;;5027548;28;20075;-68
2022/06/17 06:58:03;;;;;;;36.72;22.92;;;18.20;99.90;;;;;;5024381;28;20049;-68
2022/06/17 07:00:35;;;;;;;32.95;22.73;;;18.40;99.90;;;;;;5005890;28;20073;-67
2022/06/17 07:03:02;;;;;;;35.25;23.48;;;18.40;99.90;;;;;;5028669;28;20126;-68
2022/06/17 07:05:42;;;;;;;34.85;21.80;;;18.60;99.90;;;;;;5048195;28;20041;-68
2022/06/17 07:08:11;;;;;;;33.47;21.80;;;18.60;99.90;;;;;;5013612;28;20149;-68
2022/06/17 07:10:41;;;;;;;30.08;21.00;;;18.70;99.90;;;;;;5024363;28;20139;-66
2022/06/17 07:13:08;;;;;;;30.38;19.60;;;18.80;99.90;;;;;;5003280;28;20091;-68
2022/06/17 07:15:38;;;;;;;30.48;19.05;;;18.90;99.90;;;;;;5010855;28;20038;-68
2022/06/17 07:18:08;;;;;;;26.17;18.80;;;19.00;99.90;;;;;;5025625;28;20411;-68
2022/06/17 07:20:38;;;;;;;30.33;17.65;;;19.20;99.90;;;;;;5017595;28;20119;-69
2022/06/17 07:23:10;;;;;;;28.00;18.40;;;19.20;99.90;;;;;;5027211;28;20068;-67
2022/06/17 07:25:35;;;;;;;;;;;19.30;99.90;;;;;;5043166;28;20140;-66
2022/06/17 07:28:03;;;;;;;26.73;16.65;;;19.50;99.90;;;;;;5043865;28;19932;-67
2022/06/17 07:30:29;;;;;;;22.58;15.27;;;19.60;99.90;;;;;;5015187;28;20045;-66
2022/06/17 07:32:55;;;;;;;22.10;15.25;;;19.80;99.90;;;;;;5012024;28;20044;-67
2022/06/17 07:35:31;;;;;;;19.05;14.10;;;19.90;99.90;;;;;;5021933;28;20045;-65
2022/06/17 07:40:47;;;;;;;22.10;13.73;;;20.00;99.90;;;;;;5013740;28;20147;-65
2022/06/17 07:43:14;;;;;;;20.10;13.73;;;20.10;99.90;;;;;;5015902;28;20063;-66
2022/06/17 07:45:39;;;;;;;22.15;13.45;;;20.20;99.90;;;;;;5009727;28;20038;-65
2022/06/17 07:48:06;;;;;;;20.95;13.05;;;20.40;99.90;;;;;;5039111;28;20041;-66
2022/06/17 07:50:33;;;;;;;20.85;13.52;;;20.60;99.90;;;;;;5067675;28;20045;-66
2022/06/17 07:52:58;;;;;;;20.05;12.75;;;20.60;99.90;;;;;;5035540;28;20044;-65
2022/06/17 07:55:24;;;;;;;18.98;13.23;;;20.70;99.90;;;;;;5048409;28;20047;-65
2022/06/17 07:57:50;;;;;;;20.48;12.68;;;20.70;99.90;;;;;;5048576;28;20115;-66
2022/06/17 08:00:33;;;;;;;21.73;12.88;;;20.80;99.90;;;;;;5032684;28;20124;-66
2022/06/17 08:02:59;;;;;;;18.88;11.23;;;20.90;99.90;;;;;;5043336;28;20498;-66
2022/06/17 08:05:25;;;;;;;18.48;12.00;;;20.90;99.90;;;;;;5027734;28;20037;-65
2022/06/17 08:07:52;;;;;;;19.27;11.95;;;21.00;99.90;;;;;;5026663;28;20158;-65
2022/06/17 08:10:21;;;;;;;20.10;12.65;;;21.00;99.90;;;;;;5067494;28;20025;-64
2022/06/17 08:12:47;;;;;;;18.75;12.63;;;21.00;99.90;;;;;;5059803;28;20045;-65
2022/06/17 08:15:13;;;;;;;19.85;12.15;;;21.10;99.90;;;;;;5068375;28;20099;-64
2022/06/17 08:17:40;;;;;;;22.15;12.00;;;21.10;99.90;;;;;;5063590;28;20040;-65
2022/06/17 08:20:27;;;;;;;19.90;11.57;;;21.10;99.90;;;;;;5036880;28;20080;-64
2022/06/17 08:22:53;;;;;;;18.23;11.40;;;21.20;99.90;;;;;;5060844;28;20483;-64
2022/06/17 08:25:19;;;;;;;20.15;10.55;;;21.20;99.90;;;;;;5035731;28;20036;-65
2022/06/17 08:27:48;;;;;;;17.25;11.02;;;21.20;99.90;;;;;;5071100;28;20059;-64
2022/06/17 08:30:15;;;;;;;23.27;11.73;;;21.30;99.90;;;;;;5066385;28;20400;-66
2022/06/17 08:32:48;;;;;;;21.05;12.70;;;21.40;99.90;;;;;;5079110;28;20079;-64
2022/06/17 08:35:19;;;;;;;20.00;12.25;;;21.50;99.90;;;;;;5038462;28;20116;-65
2022/06/17 08:37:46;;;;;;;17.08;11.93;;;21.60;99.90;;;;;;5034746;28;20033;-65
2022/06/17 08:40:29;;;;;;;19.70;11.98;;;21.70;99.90;;;;;;5055268;28;20057;-65
2022/06/17 08:43:31;;;;;;;19.65;11.60;;;21.80;99.90;;;;;;5033833;28;20487;-66
2022/06/17 08:46:18;;;;;;;19.48;10.95;;;21.80;99.90;;;;;;5035353;28;20068;-65
2022/06/17 08:49:08;;;;;;;15.73;10.45;;;21.70;99.90;;;;;;5035149;28;20037;-66
2022/06/17 08:52:09;;;;;;;22.83;11.40;;;21.70;99.90;;;;;;5025748;28;20132;-66
2022/06/17 08:58:36;;;;;;;20.50;12.02;;;21.60;99.90;;;;;;5052101;28;20036;-64
2022/06/17 09:01:16;;;;;;;15.23;11.10;;;21.60;99.90;;;;;;5033486;28;20110;-67
2022/06/17 09:03:51;;;;;;;18.92;10.93;;;21.60;99.90;;;;;;5060996;28;20144;-66
2022/06/17 09:06:32;;;;;;;19.33;11.32;;;21.60;99.90;;;;;;5023359;28;20040;-65
2022/06/17 09:09:16;;;;;;;20.80;11.95;;;21.70;99.90;;;;;;5030492;28;20372;-66
2022/06/17 09:12:11;;;;;;;19.83;10.98;;;21.90;99.90;;;;;;5027400;28;20042;-64
2022/06/17 09:14:39;;;;;;;22.67;12.02;;;22.10;99.90;;;;;;5026636;28;20104;-64
2022/06/17 09:17:30;;;;;;;19.70;10.77;;;22.40;99.90;;;;;;5041547;28;20091;-65
2022/06/17 09:19:59;;;;;;;21.70;10.98;;;22.50;99.90;;;;;;5044075;28;20575;-64
2022/06/17 09:22:28;;;;;;;16.17;10.50;;;22.70;99.90;;;;;;5021878;28;20404;-65
2022/06/17 09:25:00;;;;;;;17.10;10.40;;;23.00;99.90;;;;;;5028414;28;20108;-63
2022/06/17 09:27:33;;;;;;;18.38;11.07;;;23.10;99.90;;;;;;5042631;28;20049;-65
2022/06/17 09:30:06;;;;;;;17.15;10.68;;;23.20;99.90;;;;;;5062863;28;20041;-66
2022/06/17 09:32:38;;;;;;;19.38;10.48;;;23.00;99.90;;;;;;5070095;28;20044;-68
2022/06/17 09:35:07;;;;;;;;;;;23.00;99.90;;;;;;5046335;28;20068;-66
2022/06/17 09:38:05;;;;;;;19.60;10.82;;;22.90;99.90;;;;;;5035871;28;19916;-66
2022/06/17 09:40:36;;;;;;;18.92;10.63;;;23.00;99.90;;;;;;5061646;28;20484;-64
2022/06/17 09:43:06;;;;;;;18.30;10.43;;;23.00;99.90;;;;;;5048357;28;20080;-64
2022/06/17 09:45:53;;;;;;;17.75;10.82;;;23.10;99.90;;;;;;5069731;28;20298;-66
2022/06/17 09:48:25;;;;;;;18.73;10.82;;;23.20;99.90;;;;;;5032835;28;20395;-65
2022/06/17 09:50:54;;;;;;;16.98;9.77;;;23.40;99.90;;;;;;5038570;28;20518;-63
2022/06/17 09:53:51;;;;;;;19.85;10.73;;;23.70;99.90;;;;;;5037141;28;20407;-65
2022/06/17 09:56:53;;;;;;;16.10;10.48;;;23.90;99.90;;;;;;5039596;28;20049;-65
2022/06/17 09:59:29;;;;;;;19.80;11.18;;;24.00;99.90;;;;;;5044286;28;20051;-65
2022/06/17 10:01:55;;;;;;;17.70;11.20;;;24.20;99.90;;;;;;5049018;28;20033;-66
2022/06/17 10:04:24;;;;;;;18.17;11.50;;;24.20;99.90;;;;;;5049139;28;20036;-66
2022/06/17 10:07:04;;;;;;;23.05;12.25;;;24.20;99.90;;;;;;5024367;28;20041;-65
2022/06/17 10:09:56;;;;;;;20.88;11.10;;;24.20;99.90;;;;;;5074709;28;20044;-65
2022/06/17 10:12:48;;;;;;;20.20;11.95;;;24.30;99.90;;;;;;5028248;28;20061;-66
2022/06/17 10:15:22;;;;;;;21.25;12.23;;;24.40;99.90;;;;;;5065095;28;20047;-65
2022/06/17 10:20:57;;;;;;;17.85;10.45;;;24.40;99.90;;;;;;5042213;28;20094;-67
2022/06/17 10:23:28;;;;;;;15.18;9.40;;;24.40;99.90;;;;;;5071468;28;20038;-66
2022/06/17 10:26:12;;;;;;;12.98;9.40;;;24.50;99.90;;;;;;5034475;28;20455;-68
2022/06/17 10:29:22;;;;;;;18.25;10.27;;;24.60;99.90;;;;;;5032322;28;20045;-67
2022/06/17 10:31:50;;;;;;;18.17;10.35;;;24.60;99.90;;;;;;5059332;28;20083;-68
2022/06/17 10:34:27;;;;;;;21.40;11.07;;;24.70;99.90;;;;;;5050299;28;20049;-66
2022/06/17 10:36:56;;;;;;;20.55;10.88;;;24.50;99.90;;;;;;5084491;28;20048;-68
2022/06/17 10:39:23;;;;;;;18.48;10.48;;;24.40;99.90;;;;;;5057098;28;20049;-68
2022/06/17 10:41:50;;;;;;;22.50;11.00;;;24.40;99.90;;;;;;5018287;28;20292;-70
2022/06/17 10:44:18;;;;;;;19.05;10.65;;;24.40;99.90;;;;;;5060935;28;20041;-72
2022/06/17 10:46:52;;;;;;;18.38;10.43;;;24.40;99.90;;;;;;5036077;28;20403;-72
2022/06/17 10:49:27;;;;;;;16.67;10.13;;;24.40;99.90;;;;;;5032161;28;20083;-67
2022/06/17 10:52:04;;;;;;;17.85;10.88;;;24.50;99.90;;;;;;5047239;28;20037;-67
2022/06/17 10:54:34;;;;;;;18.67;10.70;;;24.60;99.90;;;;;;5053104;28;20044;-68
2022/06/17 10:57:11;;;;;;;15.07;10.82;;;24.70;99.90;;;;;;5035762;28;20067;-67
2022/06/17 10:59:43;;;;;;;22.05;11.55;;;24.80;99.90;;;;;;5034788;28;20040;-67
2022/06/17 11:02:28;;;;;;;20.90;11.25;;;24.80;99.90;;;;;;5070300;28;20037;-67
2022/06/17 11:05:05;;;;;;;17.20;10.85;;;24.80;99.90;;;;;;5036999;28;20090;-66
2022/06/17 11:07:37;;;;;;;17.83;10.00;;;24.80;99.90;;;;;;5055271;28;20033;-66
2022/06/17 11:10:08;;;;;;;;;;;24.80;99.90;;;;;;5051210;28;20082;-67
2022/06/17 11:12:38;;;;;;;24.75;10.57;;;24.80;99.90;;;;;;5048571;28;20278;-69
2022/06/17 11:15:34;;;;;;;16.33;9.88;;;24.90;99.90;;;;;;5063309;28;20494;-67
2022/06/17 11:18:25;;;;;;;16.77;10.10;;;24.90;99.90;;;;;;5035434;28;20033;-66
2022/06/17 11:20:59;;;;;;;17.80;9.50;;;24.90;99.90;;;;;;5036122;28;20037;-66
2022/06/17 11:23:38;;;;;;;19.08;10.13;;;24.90;99.90;;;;;;5024890;28;20041;-66
2022/06/17 11:26:19;;;;;;;18.00;10.23;;;24.80;99.90;;;;;;5019673;28;20037;-67
2022/06/17 11:28:48;;;;;;;15.23;9.43;;;24.80;99.90;;;;;;5036065;28;20033;-66
2022/06/17 11:31:20;;;;;;;15.68;9.85;;;24.80;99.90;;;;;;5036040;28;20104;-66
2022/06/17 11:33:51;;;;;;;;;;;25.00;99.90;;;;;;5052813;28;20070;-66
2022/06/17 11:36:20;;;;;;;16.45;10.38;;;25.20;99.90;;;;;;5055771;28;19920;-67
2022/06/17 11:38:47;;;;;;;15.00;10.68;;;25.50;99.90;;;;;;5032076;28;20052;-65
2022/06/17 11:41:41;;;;;;;18.80;10.25;;;25.60;99.90;;;;;;5042185;28;20033;-68
2022/06/17 11:44:18;;;;;;;15.27;10.50;;;25.90;99.90;;;;;;5024484;28;20063;-72
2022/06/17 11:46:52;;;;;;;17.42;9.70;;;26.00;99.90;;;;;;5027126;28;20287;-68
2022/06/17 11:49:19;;;;;;;19.50;10.80;;;26.10;99.90;;;;;;5058796;28;20037;-68
2022/06/17 11:52:00;;;;;;;17.23;9.85;;;26.10;99.90;;;;;;5072999;28;20369;-69
2022/06/17 11:54:33;;;;;;;23.73;11.20;;;26.10;99.90;;;;;;5047624;28;20048;-67
2022/06/17 11:57:13;;;;;;;16.50;11.27;;;26.10;99.90;;;;;;5039260;28;20287;-65
2022/06/17 11:59:47;;;;;;;19.48;11.10;;;26.20;99.90;;;;;;5037506;28;20037;-70
2022/06/17 12:02:14;;;;;;;16.98;10.77;;;26.10;99.90;;;;;;5053146;28;20055;-67
2022/06/17 12:04:55;;;;;;;19.98;11.10;;;26.20;99.90;;;;;;5024337;28;20040;-67
2022/06/17 12:07:42;;;;;;;18.50;10.98;;;26.20;99.90;;;;;;5038247;28;20498;-69
2022/06/17 12:10:42;;;;;;;23.33;12.32;;;26.20;99.90;;;;;;5072824;28;20114;-68
2022/06/17 12:13:28;;;;;;;22.20;11.13;;;26.30;99.90;;;;;;5066010;28;20120;-67
2022/06/17 12:16:26;;;;;;;18.92;11.00;;;26.30;99.90;;;;;;5046814;28;20398;-69
2022/06/17 12:18:57;;;;;;;13.63;10.30;;;26.40;99.90;;;;;;5013740;28;20049;-67
2022/06/17 12:21:29;;;;;;;17.60;11.02;;;26.40;99.90;;;;;;5016891;28;20251;-66
2022/06/17 12:24:23;;;;;;;18.15;11.23;;;26.40;99.90;;;;;;5044826;28;20095;-68
2022/06/17 12:27:07;;;;;;;15.90;10.80;;;26.40;99.90;;;;;;5039679;28;20115;-68
2022/06/17 12:30:06;;;;;;;15.25;10.50;;;26.50;99.90;;;;;;5035342;28;20044;-67
2022/06/17 12:32:36;;;;;;;17.92;10.40;;;26.60;99.90;;;;;;5039968;28;20024;-69
2022/06/17 12:35:41;;;;;;;15.83;11.07;;;26.60;99.90;;;;;;5053338;28;20049;-68
2022/06/17 12:38:16;;;;;;;18.00;10.43;;;26.60;99.90;;;;;;5046061;28;20298;-70
2022/06/17 12:41:04;;;;;;;14.98;10.63;;;26.60;99.90;;;;;;5041637;28;20047;-72
2022/06/17 12:43:57;;;;;;;17.90;11.23;;;26.70;99.90;;;;;;5039006;28;20119;-69
2022/06/17 12:46:42;;;;;;;16.92;10.60;;;26.60;99.90;;;;;;5060035;28;20037;-67
2022/06/17 12:55:16;;;;;;;20.48;11.05;;;26.80;99.90;;;;;;5033110;28;20439;-69
2022/06/17 13:01:39;;;;;;;18.83;10.88;;;26.70;99.90;;;;;;5052399;28;20063;-67
2022/06/17 13:04:24;;;;;;;26.10;11.43;;;26.80;99.90;;;;;;5036066;28;20053;-69
2022/06/17 13:07:19;;;;;;;16.27;10.95;;;26.90;99.90;;;;;;5067775;28;20354;-68
2022/06/17 13:10:39;;;;;;;15.10;10.70;;;26.80;99.90;;;;;;5034606;28;20052;-69
2022/06/17 13:13:20;;;;;;;20.20;11.55;;;26.80;99.90;;;;;;5027459;28;20140;-67
2022/06/17 13:16:02;;;;;;;20.02;11.35;;;26.60;99.90;;;;;;5067387;28;20391;-68
2022/06/17 13:18:37;;;;;;;20.25;11.05;;;26.50;99.90;;;;;;5066842;28;20399;-68
2022/06/17 13:21:11;;;;;;;16.27;10.63;;;26.40;99.90;;;;;;5033889;28;20468;-67